createdAt,value
2022-12-03T00:02:12.897Z,3.40
2022-12-03T00:04:39.594Z,3.40
2022-12-03T00:07:06.226Z,3.40
2022-12-03T00:09:32.856Z,3.40
2022-12-03T00:11:59.608Z,3.40
2022-12-03T00:14:26.260Z,3.40
2022-12-03T00:16:52.855Z,3.40
2022-12-03T00:19:19.480Z,3.40
2022-12-03T00:21:46.102Z,3.40
2022-12-03T00:24:12.749Z,3.40
2022-12-03T00:26:39.377Z,3.40
2022-12-03T00:29:06.013Z,3.40
2022-12-03T00:31:32.677Z,3.40
2022-12-03T00:33:59.384Z,3.40
2022-12-03T00:36:26.018Z,3.40
2022-12-03T00:38:52.737Z,3.40
2022-12-03T00:41:19.359Z,3.30
2022-12-03T00:43:46.011Z,3.30
2022-12-03T00:46:14.799Z,3.30
2022-12-03T00:48:44.845Z,3.30
2022-12-03T00:51:11.442Z,3.40
2022-12-03T00:53:38.649Z,3.40
2022-12-03T00:56:05.553Z,3.40
2022-12-03T00:58:32.205Z,3.40
2022-12-03T01:00:58.899Z,3.40
2022-12-03T01:03:25.569Z,3.40
2022-12-03T01:05:52.216Z,3.40
2022-12-03T01:08:18.879Z,3.40
2022-12-03T01:10:45.476Z,3.40
2022-12-03T01:13:12.112Z,3.40
2022-12-03T01:15:38.784Z,3.40
2022-12-03T01:18:05.525Z,3.40
2022-12-03T01:20:32.226Z,3.40
2022-12-03T01:22:58.864Z,3.40
2022-12-03T01:25:25.568Z,3.40
2022-12-03T01:27:52.200Z,3.50
2022-12-03T01:30:19.031Z,3.50
2022-12-03T01:32:45.676Z,3.50
2022-12-03T01:35:12.358Z,3.50
2022-12-03T01:37:39.015Z,3.60
2022-12-03T01:40:08.187Z,3.60
2022-12-03T01:42:38.944Z,3.60
2022-12-03T01:45:06.740Z,3.60
2022-12-03T01:47:37.776Z,3.60
2022-12-03T01:50:08.404Z,3.50
2022-12-03T01:52:38.447Z,3.50
2022-12-03T01:55:13.181Z,3.50
2022-12-03T01:57:47.049Z,3.60
2022-12-03T02:00:22.089Z,3.60
2022-12-03T02:02:53.978Z,3.60
2022-12-03T02:05:23.520Z,3.60
2022-12-03T02:07:50.406Z,3.60
2022-12-03T02:10:21.142Z,3.50
2022-12-03T02:12:59.613Z,3.60
2022-12-03T02:15:26.345Z,3.60
2022-12-03T02:17:53.517Z,3.70
2022-12-03T02:20:20.696Z,3.70
2022-12-03T02:23:06.477Z,3.70
2022-12-03T02:25:35.653Z,3.70
2022-12-03T02:28:04.225Z,3.80
2022-12-03T02:30:31.677Z,3.80
2022-12-03T02:32:59.171Z,3.80
2022-12-03T02:35:28.761Z,3.70
2022-12-03T02:38:00.134Z,3.80
2022-12-03T02:40:30.986Z,3.80
2022-12-03T02:43:01.286Z,3.80
2022-12-03T02:45:32.350Z,3.80
2022-12-03T02:48:03.161Z,3.80
2022-12-03T02:50:34.021Z,3.80
2022-12-03T02:53:05.467Z,3.80
2022-12-03T02:55:37.043Z,3.80
2022-12-03T02:58:05.417Z,3.80
2022-12-03T03:00:33.432Z,3.90
2022-12-03T03:03:01.397Z,3.90
2022-12-03T03:05:28.311Z,3.80
2022-12-03T03:07:58.273Z,3.80
2022-12-03T03:10:26.158Z,3.90
2022-12-03T03:12:54.320Z,3.90
2022-12-03T03:15:22.426Z,3.90
2022-12-03T03:17:49.142Z,3.90
2022-12-03T03:20:16.131Z,3.90
2022-12-03T03:22:43.708Z,3.90
2022-12-03T03:25:15.285Z,3.90
2022-12-03T03:27:57.009Z,3.90
2022-12-03T03:30:23.674Z,3.90
2022-12-03T03:32:50.443Z,3.90
2022-12-03T03:35:17.985Z,3.90
2022-12-03T03:37:44.680Z,3.90
2022-12-03T03:40:11.870Z,3.90
2022-12-03T03:42:39.293Z,3.90
2022-12-03T03:45:07.965Z,3.80
2022-12-03T03:47:34.680Z,3.80
2022-12-03T03:50:01.799Z,3.80
2022-12-03T03:52:28.780Z,3.90
2022-12-03T03:54:55.629Z,3.90
2022-12-03T03:57:22.456Z,3.90
2022-12-03T03:59:49.133Z,3.90
2022-12-03T04:02:24.667Z,3.90
2022-12-03T04:04:51.870Z,3.90
2022-12-03T04:07:18.824Z,3.90
2022-12-03T04:09:45.833Z,3.90
2022-12-03T04:12:31.559Z,3.90
2022-12-03T04:14:58.654Z,3.80
2022-12-03T04:17:25.432Z,3.80
2022-12-03T04:19:52.063Z,3.90
2022-12-03T04:22:37.334Z,3.90
2022-12-03T04:25:23.443Z,3.90
2022-12-03T04:28:08.849Z,3.90
2022-12-03T04:30:35.500Z,3.90
2022-12-03T04:33:20.500Z,3.90
2022-12-03T04:35:47.267Z,3.80
2022-12-03T04:38:15.979Z,3.80
2022-12-03T04:41:01.232Z,3.80
2022-12-03T04:43:28.607Z,3.80
2022-12-03T04:45:55.325Z,3.80
2022-12-03T04:48:22.025Z,3.80
2022-12-03T04:50:48.819Z,3.90
2022-12-03T04:53:15.426Z,3.80
2022-12-03T04:55:42.043Z,3.80
2022-12-03T04:58:09.647Z,3.80
2022-12-03T05:00:36.413Z,3.80
2022-12-03T05:03:03.245Z,3.90
2022-12-03T05:05:29.900Z,3.90
2022-12-03T05:07:56.511Z,3.90
2022-12-03T05:10:23.185Z,3.90
2022-12-03T05:12:49.815Z,3.80
2022-12-03T05:15:16.577Z,3.90
2022-12-03T05:17:43.237Z,3.90
2022-12-03T05:20:29.084Z,3.90
2022-12-03T05:22:55.753Z,3.90
2022-12-03T05:25:22.374Z,3.90
2022-12-03T05:27:49.015Z,3.90
2022-12-03T05:30:15.836Z,3.90
2022-12-03T05:32:42.448Z,4.00
2022-12-03T05:35:10.322Z,4.00
2022-12-03T05:37:37.256Z,4.00
2022-12-03T05:40:04.393Z,4.00
2022-12-03T05:42:49.559Z,4.00
2022-12-03T05:45:16.357Z,4.00
2022-12-03T05:47:42.974Z,4.00
2022-12-03T05:50:09.849Z,4.00
2022-12-03T05:52:36.470Z,3.90
2022-12-03T05:55:03.324Z,3.90
2022-12-03T05:57:29.940Z,3.90
2022-12-03T05:59:56.587Z,3.90
2022-12-03T06:02:23.350Z,3.80
2022-12-03T06:04:50.409Z,3.90
2022-12-03T06:07:17.237Z,3.80
2022-12-03T06:09:43.887Z,3.80
2022-12-03T06:12:10.525Z,3.80
2022-12-03T06:14:37.172Z,3.80
2022-12-03T06:17:04.716Z,3.80
2022-12-03T06:19:31.403Z,3.90
2022-12-03T06:21:58.035Z,3.80
2022-12-03T06:24:24.689Z,3.90
2022-12-03T06:26:51.370Z,3.90
2022-12-03T06:29:18.132Z,3.90
2022-12-03T06:31:44.814Z,3.90
2022-12-03T06:34:11.626Z,4.00
2022-12-03T06:36:38.276Z,4.00
2022-12-03T06:39:04.907Z,4.00
2022-12-03T06:41:31.637Z,4.00
2022-12-03T06:43:58.264Z,4.00
2022-12-03T06:46:25.337Z,4.00
2022-12-03T06:48:52.115Z,3.90
2022-12-03T06:51:18.738Z,3.90
2022-12-03T06:53:45.346Z,3.90
2022-12-03T06:56:11.983Z,3.90
2022-12-03T06:58:38.613Z,3.90
2022-12-03T07:01:05.390Z,3.90
2022-12-03T07:03:32.017Z,3.90
2022-12-03T07:05:58.698Z,3.90
2022-12-03T07:08:25.434Z,3.90
2022-12-03T07:10:52.074Z,3.80
2022-12-03T07:13:18.713Z,3.90
2022-12-03T07:15:45.433Z,3.90
2022-12-03T07:18:12.088Z,3.90
2022-12-03T07:20:38.804Z,3.90
2022-12-03T07:23:05.416Z,3.90
2022-12-03T07:25:32.057Z,3.90
2022-12-03T07:27:58.665Z,3.90
2022-12-03T07:30:27.628Z,3.90
2022-12-03T07:32:54.790Z,3.90
2022-12-03T07:35:21.599Z,3.90
2022-12-03T07:37:48.198Z,3.90
2022-12-03T07:40:14.828Z,3.90
2022-12-03T07:42:41.420Z,3.80
2022-12-03T07:45:08.795Z,3.80
2022-12-03T07:47:35.383Z,3.80
2022-12-03T07:50:02.022Z,3.80
2022-12-03T07:52:28.636Z,3.80
2022-12-03T07:54:55.441Z,3.80
2022-12-03T07:57:22.330Z,3.80
2022-12-03T07:59:48.985Z,3.80
2022-12-03T08:02:20.979Z,3.80
2022-12-03T08:04:48.391Z,3.90
2022-12-03T08:07:14.997Z,3.90
2022-12-03T08:09:42.122Z,3.90
2022-12-03T08:12:17.248Z,4.00
2022-12-03T08:14:44.456Z,4.00
2022-12-03T08:17:12.766Z,4.00
2022-12-03T08:19:40.330Z,4.00
2022-12-03T08:22:14.752Z,4.00
2022-12-03T08:24:42.378Z,4.10
2022-12-03T08:27:16.792Z,4.10
2022-12-03T08:29:43.940Z,4.20
2022-12-03T08:32:12.286Z,4.20
2022-12-03T08:34:44.165Z,4.20
2022-12-03T08:37:17.789Z,4.20
2022-12-03T08:39:55.202Z,4.20
2022-12-03T08:42:44.086Z,4.30
2022-12-03T08:45:29.241Z,4.30
2022-12-03T08:48:00.178Z,4.30
2022-12-03T08:50:30.134Z,4.40
2022-12-03T08:53:06.672Z,4.40
2022-12-03T08:55:36.595Z,4.40
2022-12-03T08:58:14.986Z,4.40
2022-12-03T09:00:42.735Z,4.50
2022-12-03T09:03:16.213Z,4.40
2022-12-03T09:05:42.867Z,4.40
2022-12-03T09:08:09.618Z,4.40
2022-12-03T09:10:36.352Z,4.40
2022-12-03T09:13:03.048Z,4.40
2022-12-03T09:15:29.716Z,4.40
2022-12-03T09:17:56.347Z,4.50
2022-12-03T09:20:23.047Z,4.50
2022-12-03T09:22:49.762Z,4.60
2022-12-03T09:25:17.131Z,4.60
2022-12-03T09:27:43.753Z,4.70
2022-12-03T09:30:20.630Z,4.80
2022-12-03T09:32:47.274Z,4.90
2022-12-03T09:35:13.968Z,4.90
2022-12-03T09:37:40.605Z,5.00
2022-12-03T09:40:08.436Z,5.00
2022-12-03T09:42:35.469Z,5.10
2022-12-03T09:45:04.011Z,5.10
2022-12-03T09:47:31.171Z,5.20
2022-12-03T09:49:58.469Z,5.20
2022-12-03T09:52:28.972Z,5.30
2022-12-03T09:55:05.581Z,5.40
2022-12-03T09:57:32.233Z,5.40
2022-12-03T09:59:59.280Z,5.40
2022-12-03T10:02:29.646Z,5.50
2022-12-03T10:04:58.145Z,5.60
2022-12-03T10:07:25.725Z,5.70
2022-12-03T10:09:53.121Z,5.80
2022-12-03T10:12:24.054Z,5.90
2022-12-03T10:14:51.431Z,6.00
2022-12-03T10:17:18.359Z,5.90
2022-12-03T10:19:45.267Z,5.90
2022-12-03T10:22:11.911Z,5.90
2022-12-03T10:24:38.891Z,5.90
2022-12-03T10:27:24.477Z,5.90
2022-12-03T10:29:56.559Z,5.80
2022-12-03T10:32:38.416Z,5.80
2022-12-03T10:35:12.831Z,5.90
2022-12-03T10:38:00.812Z,5.90
2022-12-03T10:40:32.823Z,5.80
2022-12-03T10:43:18.160Z,5.80
2022-12-03T10:46:10.437Z,5.70
2022-12-03T10:48:37.561Z,5.70
2022-12-03T10:51:16.101Z,5.70
2022-12-03T10:53:42.947Z,5.60
2022-12-03T10:56:14.947Z,5.60
2022-12-03T10:58:41.944Z,5.60
2022-12-03T11:01:23.853Z,5.60
2022-12-03T11:03:51.434Z,5.60
2022-12-03T11:06:21.066Z,5.60
2022-12-03T11:08:56.168Z,5.60
2022-12-03T11:11:29.621Z,5.60
2022-12-03T11:13:58.600Z,5.60
2022-12-03T11:16:40.520Z,5.60
2022-12-03T11:19:13.208Z,5.60
2022-12-03T11:22:09.905Z,5.60
2022-12-03T11:24:39.106Z,5.70
2022-12-03T11:27:07.378Z,5.60
2022-12-03T11:29:46.048Z,5.70
2022-12-03T11:32:38.253Z,5.70
2022-12-03T11:35:12.487Z,5.70
2022-12-03T11:37:39.225Z,5.80
2022-12-03T11:40:17.807Z,5.80
2022-12-03T11:42:47.436Z,5.80
2022-12-03T11:45:23.321Z,5.80
2022-12-03T11:47:58.951Z,5.80
2022-12-03T11:50:49.342Z,5.80
2022-12-03T11:53:31.394Z,5.80
2022-12-03T11:56:10.693Z,5.70
2022-12-03T11:58:39.893Z,5.70
2022-12-03T12:01:07.926Z,5.70
2022-12-03T12:03:42.364Z,5.80
2022-12-03T12:06:18.276Z,5.70
2022-12-03T12:08:50.973Z,5.70
2022-12-03T12:11:27.691Z,5.70
2022-12-03T12:13:58.424Z,5.70
2022-12-03T12:16:51.664Z,5.70
2022-12-03T12:19:40.070Z,5.70
2022-12-03T12:22:25.129Z,5.60
2022-12-03T12:24:54.309Z,5.60
2022-12-03T12:27:32.942Z,5.60
2022-12-03T12:30:06.894Z,5.60
2022-12-03T12:32:41.838Z,5.60
2022-12-03T12:35:23.498Z,5.60
2022-12-03T12:38:11.586Z,5.60
2022-12-03T12:40:40.755Z,5.60
2022-12-03T12:43:26.340Z,5.60
2022-12-03T12:45:55.035Z,5.60
2022-12-03T12:48:33.614Z,5.50
2022-12-03T12:51:09.453Z,5.50
2022-12-03T12:53:37.998Z,5.60
2022-12-03T12:56:20.620Z,5.60
2022-12-03T12:58:47.496Z,5.60
2022-12-03T13:01:24.798Z,5.60
2022-12-03T13:03:52.768Z,5.60
2022-12-03T13:06:26.702Z,5.60
2022-12-03T13:08:54.354Z,5.50
2022-12-03T13:11:45.575Z,5.50
2022-12-03T13:14:19.174Z,5.50
2022-12-03T13:16:50.899Z,5.50
2022-12-03T13:19:23.375Z,5.60
2022-12-03T13:21:51.632Z,5.60
2022-12-03T13:24:43.052Z,5.60
2022-12-03T13:27:18.529Z,5.60
2022-12-03T13:29:49.058Z,5.60
2022-12-03T13:32:47.828Z,5.60
2022-12-03T13:35:24.081Z,5.50
2022-12-03T13:37:50.730Z,5.40
2022-12-03T13:40:27.933Z,5.40
2022-12-03T13:42:55.068Z,5.40
2022-12-03T13:45:24.628Z,5.40
2022-12-03T13:47:57.708Z,5.40
2022-12-03T13:50:37.208Z,5.50
2022-12-03T13:53:20.820Z,5.50
2022-12-03T13:55:51.562Z,5.50
2022-12-03T13:58:18.308Z,5.50
2022-12-03T14:00:45.206Z,5.50
2022-12-03T14:03:12.156Z,5.50
2022-12-03T14:05:38.920Z,5.50
2022-12-03T14:08:06.162Z,5.50
2022-12-03T14:10:32.994Z,5.40
2022-12-03T14:12:59.698Z,5.40
2022-12-03T14:15:26.780Z,5.40
2022-12-03T14:17:53.729Z,5.40
2022-12-03T14:20:20.460Z,5.40
2022-12-03T14:22:47.094Z,5.40
2022-12-03T14:25:13.872Z,5.40
2022-12-03T14:27:40.527Z,5.40
2022-12-03T14:30:07.851Z,5.40
2022-12-03T14:32:34.481Z,5.30
2022-12-03T14:35:05.154Z,5.30
2022-12-03T14:37:34.986Z,5.30
2022-12-03T14:40:03.605Z,5.30
2022-12-03T14:42:30.225Z,5.30
2022-12-03T14:44:56.857Z,5.20
2022-12-03T14:47:23.587Z,5.20
2022-12-03T14:49:50.654Z,5.20
2022-12-03T14:52:18.356Z,5.20
2022-12-03T14:54:45.627Z,5.20
2022-12-03T14:57:14.450Z,5.20
2022-12-03T14:59:42.704Z,5.10
2022-12-03T15:02:10.597Z,5.10
2022-12-03T15:04:38.793Z,5.10
2022-12-03T15:07:06.158Z,5.20
2022-12-03T15:09:32.912Z,5.10
2022-12-03T15:12:00.078Z,5.10
2022-12-03T15:14:27.090Z,5.10
2022-12-03T15:16:53.860Z,5.10
2022-12-03T15:19:21.193Z,5.20
2022-12-03T15:21:47.800Z,5.10
2022-12-03T15:24:14.462Z,5.10
2022-12-03T15:26:41.060Z,5.10
2022-12-03T15:29:07.651Z,5.10
2022-12-03T15:31:34.365Z,5.10
2022-12-03T15:34:01.090Z,5.10
2022-12-03T15:36:27.705Z,5.00
2022-12-03T15:38:54.331Z,5.10
2022-12-03T15:41:21.456Z,5.10
2022-12-03T15:43:48.960Z,5.00
2022-12-03T15:46:15.742Z,5.00
2022-12-03T15:48:42.788Z,5.10
2022-12-03T15:51:09.699Z,5.10
2022-12-03T15:53:36.338Z,5.10
2022-12-03T15:56:03.151Z,5.10
2022-12-03T15:58:29.762Z,5.10
2022-12-03T16:00:56.407Z,5.10
2022-12-03T16:03:23.280Z,5.10
2022-12-03T16:05:49.996Z,5.10
2022-12-03T16:08:16.671Z,5.10
2022-12-03T16:10:43.433Z,5.10
2022-12-03T16:13:10.086Z,5.10
2022-12-03T16:15:36.745Z,5.10
2022-12-03T16:18:03.637Z,5.10
2022-12-03T16:20:30.294Z,5.10
2022-12-03T16:22:56.928Z,5.10
2022-12-03T16:25:23.576Z,5.10
2022-12-03T16:27:50.195Z,5.10
2022-12-03T16:30:17.117Z,5.10
2022-12-03T16:32:43.745Z,5.10
2022-12-03T16:35:10.363Z,5.10
2022-12-03T16:37:37.098Z,5.10
2022-12-03T16:40:04.209Z,5.10
2022-12-03T16:42:30.836Z,5.10
2022-12-03T16:45:03.315Z,5.10
2022-12-03T16:47:33.842Z,5.00
2022-12-03T16:50:06.516Z,5.00
2022-12-03T16:52:33.449Z,5.00
2022-12-03T16:55:00.244Z,5.00
2022-12-03T16:57:33.131Z,5.00
2022-12-03T17:00:00.693Z,5.00
2022-12-03T17:02:27.737Z,5.00
2022-12-03T17:04:54.611Z,5.00
2022-12-03T17:07:21.268Z,5.00
2022-12-03T17:09:47.876Z,5.00
2022-12-03T17:12:14.533Z,4.90
2022-12-03T17:14:41.148Z,4.90
2022-12-03T17:17:07.792Z,4.90
2022-12-03T17:19:34.436Z,4.90
2022-12-03T17:22:01.133Z,4.90
2022-12-03T17:24:27.821Z,4.90
2022-12-03T17:26:54.462Z,4.90
2022-12-03T17:29:21.129Z,4.90
2022-12-03T17:31:47.852Z,4.90
2022-12-03T17:34:14.671Z,4.90
2022-12-03T17:36:41.341Z,4.90
2022-12-03T17:39:07.951Z,4.90
2022-12-03T17:41:34.627Z,4.90
2022-12-03T17:44:04.722Z,4.90
2022-12-03T17:46:34.101Z,4.90
2022-12-03T17:49:01.477Z,4.90
2022-12-03T17:51:28.178Z,4.90
2022-12-03T17:53:54.846Z,4.90
2022-12-03T17:56:21.504Z,4.90
2022-12-03T17:58:48.122Z,4.90
2022-12-03T18:01:14.766Z,4.90
2022-12-03T18:03:41.443Z,4.90
2022-12-03T18:06:08.298Z,4.90
2022-12-03T18:08:34.917Z,4.80
2022-12-03T18:11:01.627Z,4.80
2022-12-03T18:13:28.319Z,4.80
2022-12-03T18:15:55.229Z,4.80
2022-12-03T18:18:22.127Z,4.80
2022-12-03T18:20:48.816Z,4.80
2022-12-03T18:23:15.608Z,4.80
2022-12-03T18:25:42.365Z,4.80
2022-12-03T18:28:09.061Z,4.80
2022-12-03T18:30:36.549Z,4.80
2022-12-03T18:33:03.239Z,4.80
2022-12-03T18:35:30.050Z,4.80
2022-12-03T18:37:56.704Z,4.80
2022-12-03T18:40:25.053Z,4.70
2022-12-03T18:42:51.889Z,4.70
2022-12-03T18:45:18.897Z,4.70
2022-12-03T18:47:45.744Z,4.70
2022-12-03T18:50:13.299Z,4.70
2022-12-03T18:52:40.443Z,4.70
2022-12-03T18:55:08.063Z,4.70
2022-12-03T18:57:34.772Z,4.70
2022-12-03T19:00:01.599Z,4.60
2022-12-03T19:05:15.153Z,4.60
2022-12-03T19:07:43.223Z,4.60
2022-12-03T19:10:11.416Z,4.50
2022-12-03T19:12:38.652Z,4.50
2022-12-03T19:15:06.070Z,4.50
2022-12-03T19:17:32.993Z,4.50
2022-12-03T19:19:59.633Z,4.50
2022-12-03T19:22:26.285Z,4.60
2022-12-03T19:24:52.955Z,4.60
2022-12-03T19:27:19.640Z,4.60
2022-12-03T19:29:48.815Z,4.50
2022-12-03T19:32:15.482Z,4.50
2022-12-03T19:34:42.161Z,4.60
2022-12-03T19:37:08.776Z,4.60
2022-12-03T19:39:35.466Z,4.60
2022-12-03T19:42:02.117Z,4.60
2022-12-03T19:44:28.744Z,4.60
2022-12-03T19:46:56.784Z,4.60
2022-12-03T19:49:24.221Z,4.60
2022-12-03T19:51:51.103Z,4.60
2022-12-03T19:54:18.161Z,4.60
2022-12-03T19:56:44.828Z,4.60
2022-12-03T19:59:13.000Z,4.60
2022-12-03T20:01:40.785Z,4.60
2022-12-03T20:04:07.927Z,4.70
2022-12-03T20:06:37.558Z,4.70
2022-12-03T20:09:11.504Z,4.70
2022-12-03T20:11:39.420Z,4.70
2022-12-03T20:14:08.009Z,4.70
2022-12-03T20:16:35.153Z,4.70
2022-12-03T20:19:05.270Z,4.70
2022-12-03T20:21:33.792Z,4.60
2022-12-03T20:24:00.719Z,4.70
2022-12-03T20:26:28.387Z,4.70
2022-12-03T20:28:56.013Z,4.70
2022-12-03T20:31:25.420Z,4.70
2022-12-03T20:33:54.655Z,4.70
2022-12-03T20:36:22.783Z,4.80
2022-12-03T20:38:54.521Z,4.80
2022-12-03T20:41:21.510Z,4.80
2022-12-03T20:43:48.870Z,4.80
2022-12-03T20:46:18.762Z,4.80
2022-12-03T20:48:46.195Z,4.80
2022-12-03T20:51:18.755Z,4.80
2022-12-03T20:53:46.284Z,4.80
2022-12-03T20:56:21.931Z,4.80
2022-12-03T20:58:49.497Z,4.80
2022-12-03T21:01:20.628Z,4.80
2022-12-03T21:03:48.198Z,4.80
2022-12-03T21:06:15.249Z,4.80
2022-12-03T21:08:43.146Z,4.80
2022-12-03T21:11:12.176Z,4.80
2022-12-03T21:13:43.714Z,4.80
2022-12-03T21:16:13.807Z,4.80
2022-12-03T21:18:41.025Z,4.80
2022-12-03T21:21:08.597Z,4.80
2022-12-03T21:23:35.858Z,4.80
2022-12-03T21:26:20.499Z,4.80
2022-12-03T21:28:48.720Z,4.80
2022-12-03T21:33:44.576Z,4.70
2022-12-03T21:36:13.261Z,4.70
2022-12-03T21:38:41.184Z,4.70
2022-12-03T21:41:08.462Z,4.80
2022-12-03T21:43:35.165Z,4.70
2022-12-03T21:47:10.311Z,4.70
2022-12-03T21:48:55.713Z,4.80
2022-12-03T21:51:22.343Z,4.80
2022-12-03T21:53:49.041Z,4.80
2022-12-03T21:56:18.256Z,4.80
2022-12-03T21:58:45.567Z,4.80
2022-12-03T22:01:18.964Z,4.80
2022-12-03T22:03:45.768Z,4.80
2022-12-03T22:06:12.738Z,4.70
2022-12-03T22:08:40.093Z,4.80
2022-12-03T22:11:09.224Z,4.70
2022-12-03T22:13:38.401Z,4.70
2022-12-03T22:16:08.002Z,4.70
2022-12-03T22:18:35.514Z,4.70
2022-12-03T22:21:07.110Z,4.70
2022-12-03T22:23:34.223Z,4.70
2022-12-03T22:26:04.857Z,4.70
2022-12-03T22:28:32.446Z,4.70
2022-12-03T22:30:59.141Z,4.70
2022-12-03T22:33:25.965Z,4.70
2022-12-03T22:36:01.107Z,4.70
2022-12-03T22:38:29.384Z,4.70
2022-12-03T22:40:56.348Z,4.70
2022-12-03T22:43:23.418Z,4.70
2022-12-03T22:45:56.520Z,4.70
2022-12-03T22:48:24.134Z,4.70
2022-12-03T22:50:52.137Z,4.70
2022-12-03T22:53:19.678Z,4.60
2022-12-03T22:55:54.618Z,4.60
2022-12-03T22:58:21.436Z,4.70
2022-12-03T23:00:48.065Z,4.60
2022-12-03T23:03:14.785Z,4.60
2022-12-03T23:05:41.586Z,4.60
2022-12-03T23:08:13.948Z,4.60
2022-12-03T23:10:44.176Z,4.60
2022-12-03T23:13:11.448Z,4.60
2022-12-03T23:15:43.107Z,4.60
2022-12-03T23:18:09.782Z,4.60
2022-12-03T23:20:42.613Z,4.60
2022-12-03T23:23:09.255Z,4.60
2022-12-03T23:25:37.174Z,4.60
2022-12-03T23:28:04.162Z,4.60
2022-12-03T23:30:30.878Z,4.50
2022-12-03T23:32:57.496Z,4.60
2022-12-03T23:35:24.127Z,4.60
2022-12-03T23:37:50.749Z,4.60
2022-12-03T23:40:17.521Z,4.60
2022-12-03T23:42:44.144Z,4.60
2022-12-03T23:45:11.090Z,4.60
2022-12-03T23:47:37.718Z,4.60
2022-12-03T23:50:05.384Z,4.50
2022-12-03T23:52:32.069Z,4.60
2022-12-03T23:54:58.777Z,4.50
2022-12-03T23:57:25.524Z,4.50
2022-12-03T23:59:52.495Z,4.50
